createdAt,value
2023-05-05T00:01:06.198Z,12.29
2023-05-05T00:03:33.245Z,12.29
2023-05-05T00:05:59.791Z,12.29
2023-05-05T00:08:26.431Z,12.25
2023-05-05T00:10:53.368Z,12.22
2023-05-05T00:13:20.328Z,12.22
2023-05-05T00:15:47.833Z,12.20
2023-05-05T00:18:15.704Z,12.20
2023-05-05T00:20:42.891Z,12.23
2023-05-05T00:23:09.347Z,12.22
2023-05-05T00:25:35.837Z,12.23
2023-05-05T00:28:02.356Z,12.22
2023-05-05T00:30:28.837Z,12.21
2023-05-05T00:32:55.578Z,12.22
2023-05-05T00:35:22.099Z,12.26
2023-05-05T00:37:49.206Z,12.37
2023-05-05T00:40:16.071Z,12.43
2023-05-05T00:42:47.806Z,12.49
2023-05-05T00:45:15.249Z,12.54
2023-05-05T00:47:42.428Z,12.62
2023-05-05T00:50:09.422Z,12.67
2023-05-05T00:52:36.894Z,12.80
2023-05-05T00:55:04.468Z,12.83
2023-05-05T00:57:32.332Z,12.82
2023-05-05T00:59:59.128Z,12.76
2023-05-05T01:02:25.753Z,12.72
2023-05-05T01:04:52.692Z,12.61
2023-05-05T01:07:48.300Z,12.60
2023-05-05T01:10:20.184Z,12.64
2023-05-05T01:13:05.929Z,12.66
2023-05-05T01:15:40.414Z,12.61
2023-05-05T01:18:11.856Z,12.51
2023-05-05T01:21:07.114Z,12.53
2023-05-05T01:24:14.028Z,12.56
2023-05-05T01:27:27.279Z,12.36
2023-05-05T01:30:01.998Z,12.25
2023-05-05T01:32:29.978Z,12.15
2023-05-05T01:34:59.677Z,12.13
2023-05-05T01:37:49.561Z,12.05
2023-05-05T01:40:16.335Z,11.98
2023-05-05T01:42:43.497Z,11.91
2023-05-05T01:45:11.836Z,11.82
2023-05-05T01:47:38.337Z,11.77
2023-05-05T01:50:06.236Z,11.69
2023-05-05T01:52:33.378Z,11.62
2023-05-05T01:54:59.885Z,11.53
2023-05-05T01:57:26.540Z,11.49
2023-05-05T01:59:53.009Z,11.44
2023-05-05T02:02:20.049Z,11.36
2023-05-05T02:04:46.820Z,11.29
2023-05-05T02:07:13.665Z,11.23
2023-05-05T02:09:40.146Z,11.18
2023-05-05T02:12:06.815Z,11.16
2023-05-05T02:14:33.268Z,11.13
2023-05-05T02:16:59.755Z,11.07
2023-05-05T02:19:30.950Z,11.02
2023-05-05T02:21:57.555Z,10.99
2023-05-05T02:24:24.735Z,10.96
2023-05-05T02:26:52.022Z,10.97
2023-05-05T02:29:31.507Z,10.94
2023-05-05T02:32:01.895Z,10.92
2023-05-05T02:34:28.410Z,10.95
2023-05-05T02:36:57.659Z,10.98
2023-05-05T02:39:45.260Z,11.00
2023-05-05T02:42:13.460Z,11.01
2023-05-05T02:44:41.286Z,10.96
2023-05-05T02:47:07.987Z,10.94
2023-05-05T02:49:34.456Z,10.91
2023-05-05T02:52:01.018Z,10.89
2023-05-05T02:54:27.500Z,10.84
2023-05-05T02:56:53.961Z,10.79
2023-05-05T02:59:31.014Z,10.72
2023-05-05T03:02:07.661Z,10.61
2023-05-05T03:04:47.200Z,10.62
2023-05-05T03:07:35.856Z,10.57
2023-05-05T03:10:10.278Z,10.51
2023-05-05T03:12:40.896Z,10.48
2023-05-05T03:15:08.069Z,10.48
2023-05-05T03:17:34.560Z,10.48
2023-05-05T03:20:03.474Z,10.45
2023-05-05T03:22:30.634Z,10.44
2023-05-05T03:24:57.082Z,10.44
2023-05-05T03:27:23.579Z,10.46
2023-05-05T03:29:50.058Z,10.38
2023-05-05T03:32:16.603Z,10.36
2023-05-05T03:34:43.140Z,10.37
2023-05-05T03:37:09.595Z,10.33
2023-05-05T03:39:36.090Z,10.29
2023-05-05T03:42:02.618Z,10.22
2023-05-05T03:44:29.116Z,10.21
2023-05-05T03:46:55.637Z,10.19
2023-05-05T03:49:22.102Z,10.17
2023-05-05T03:51:48.566Z,10.15
2023-05-05T03:54:15.358Z,10.15
2023-05-05T03:56:41.893Z,10.11
2023-05-05T03:59:08.782Z,10.07
2023-05-05T04:01:35.706Z,10.04
2023-05-05T04:04:02.230Z,10.04
2023-05-05T04:06:28.782Z,10.03
2023-05-05T04:08:55.569Z,10.03
2023-05-05T04:11:22.060Z,10.00
2023-05-05T04:13:49.925Z,10.01
2023-05-05T04:16:16.683Z,10.00
2023-05-05T04:18:43.188Z,9.99
2023-05-05T04:21:09.647Z,9.98
2023-05-05T04:23:36.105Z,10.00
2023-05-05T04:26:03.018Z,9.99
2023-05-05T04:28:29.753Z,9.97
2023-05-05T04:30:56.267Z,9.96
2023-05-05T04:33:22.803Z,9.94
2023-05-05T04:35:49.294Z,9.97
2023-05-05T04:38:15.993Z,10.02
2023-05-05T04:40:42.602Z,10.02
2023-05-05T04:43:09.079Z,10.03
2023-05-05T04:45:35.591Z,10.12
2023-05-05T04:48:02.158Z,10.18
2023-05-05T04:50:28.665Z,10.27
2023-05-05T04:52:56.226Z,10.33
2023-05-05T04:55:22.767Z,10.41
2023-05-05T04:57:49.227Z,10.56
2023-05-05T05:00:16.069Z,10.69
2023-05-05T05:02:42.602Z,10.79
2023-05-05T05:05:09.610Z,10.82
2023-05-05T05:07:36.175Z,10.87
2023-05-05T05:10:02.697Z,10.99
2023-05-05T05:12:29.173Z,11.06
2023-05-05T05:14:55.854Z,11.16
2023-05-05T05:17:23.771Z,11.25
2023-05-05T05:19:50.268Z,11.39
2023-05-05T05:22:16.770Z,11.51
2023-05-05T05:24:43.272Z,11.61
2023-05-05T05:27:10.334Z,11.60
2023-05-05T05:29:36.962Z,11.61
2023-05-05T05:32:03.475Z,11.59
2023-05-05T05:34:29.961Z,11.65
2023-05-05T05:36:56.498Z,11.66
2023-05-05T05:39:23.215Z,11.67
2023-05-05T05:41:49.670Z,11.71
2023-05-05T05:44:16.129Z,11.76
2023-05-05T05:46:42.660Z,11.76
2023-05-05T05:49:09.253Z,11.80
2023-05-05T05:51:35.718Z,11.78
2023-05-05T05:54:02.193Z,11.91
2023-05-05T05:56:29.298Z,12.00
2023-05-05T05:58:56.177Z,12.16
2023-05-05T06:01:22.624Z,12.31
2023-05-05T06:03:49.174Z,12.48
2023-05-05T06:06:15.725Z,12.65
2023-05-05T06:08:42.206Z,12.83
2023-05-05T06:11:08.734Z,12.96
2023-05-05T06:13:35.293Z,13.03
2023-05-05T06:16:01.873Z,13.10
2023-05-05T06:18:28.669Z,13.19
2023-05-05T06:20:55.158Z,13.25
2023-05-05T06:23:21.997Z,13.30
2023-05-05T06:25:48.478Z,13.41
2023-05-05T06:28:14.978Z,13.52
2023-05-05T06:30:41.442Z,13.64
2023-05-05T06:33:07.966Z,13.65
2023-05-05T06:35:34.575Z,13.81
2023-05-05T06:38:01.124Z,13.82
2023-05-05T06:40:27.660Z,13.95
2023-05-05T06:42:54.130Z,14.07
2023-05-05T06:45:20.582Z,14.14
2023-05-05T06:47:47.145Z,14.16
2023-05-05T06:50:13.644Z,14.34
2023-05-05T06:52:41.114Z,14.58
2023-05-05T06:55:07.973Z,14.87
2023-05-05T06:57:34.489Z,15.21
2023-05-05T07:00:01.129Z,15.42
2023-05-05T07:02:27.747Z,15.51
2023-05-05T07:04:55.412Z,15.64
2023-05-05T07:07:22.355Z,15.86
2023-05-05T07:09:48.992Z,16.08
2023-05-05T07:12:15.535Z,16.21
2023-05-05T07:14:42.078Z,16.40
2023-05-05T07:17:08.604Z,16.58
2023-05-05T07:19:35.106Z,16.64
2023-05-05T07:22:01.631Z,16.75
2023-05-05T07:24:28.123Z,16.85
2023-05-05T07:26:54.574Z,16.84
2023-05-05T07:29:21.096Z,16.96
2023-05-05T07:31:47.664Z,17.12
2023-05-05T07:34:14.148Z,17.23
2023-05-05T07:36:40.766Z,17.32
2023-05-05T07:39:07.377Z,17.46
2023-05-05T07:41:33.896Z,17.66
2023-05-05T07:44:01.153Z,17.80
2023-05-05T07:46:27.658Z,17.99
2023-05-05T07:48:54.192Z,18.18
2023-05-05T07:51:21.460Z,18.37
2023-05-05T07:53:48.035Z,18.66
2023-05-05T07:56:14.519Z,18.87
2023-05-05T07:58:41.005Z,18.98
2023-05-05T08:01:10.739Z,19.10
2023-05-05T08:03:37.425Z,19.08
2023-05-05T08:06:11.264Z,19.37
2023-05-05T08:08:37.870Z,19.51
2023-05-05T08:11:06.331Z,19.55
2023-05-05T08:13:32.893Z,19.79
2023-05-05T08:15:59.426Z,20.06
2023-05-05T08:18:26.497Z,20.27
2023-05-05T08:20:54.553Z,20.42
2023-05-05T08:23:21.516Z,20.32
2023-05-05T08:25:48.001Z,20.44
2023-05-05T08:28:14.478Z,20.55
2023-05-05T08:30:41.049Z,20.74
2023-05-05T08:33:07.558Z,20.94
2023-05-05T08:35:34.098Z,21.28
2023-05-05T08:38:00.582Z,21.45
2023-05-05T08:40:30.078Z,21.69
2023-05-05T08:42:56.586Z,21.89
2023-05-05T08:45:23.057Z,21.92
2023-05-05T08:47:49.545Z,21.95
2023-05-05T08:50:16.328Z,21.84
2023-05-05T08:52:45.837Z,21.87
2023-05-05T08:55:26.255Z,21.76
2023-05-05T08:57:56.904Z,21.76
2023-05-05T09:00:23.745Z,22.04
2023-05-05T09:02:50.376Z,22.41
2023-05-05T09:05:17.640Z,22.59
2023-05-05T09:07:44.261Z,22.60
2023-05-05T09:10:11.437Z,22.52
2023-05-05T09:12:40.417Z,22.29
2023-05-05T09:15:14.202Z,22.18
2023-05-05T09:17:41.049Z,22.09
2023-05-05T09:20:11.696Z,22.11
2023-05-05T09:22:46.107Z,22.33
2023-05-05T09:25:13.993Z,22.54
2023-05-05T09:27:49.575Z,22.82
2023-05-05T09:30:17.523Z,23.16
2023-05-05T09:32:53.933Z,23.37
2023-05-05T09:35:21.074Z,23.44
2023-05-05T09:37:47.535Z,23.64
2023-05-05T09:40:15.380Z,23.75
2023-05-05T09:42:41.885Z,23.85
2023-05-05T09:45:17.308Z,23.74
2023-05-05T09:47:45.573Z,23.95
2023-05-05T09:50:15.832Z,24.13
2023-05-05T09:52:42.871Z,24.47
2023-05-05T09:55:17.513Z,24.77
2023-05-05T09:57:44.028Z,24.93
2023-05-05T10:00:11.167Z,25.08
2023-05-05T10:02:38.826Z,25.43
2023-05-05T10:05:09.563Z,25.63
2023-05-05T10:07:36.778Z,25.91
2023-05-05T10:10:04.870Z,26.35
2023-05-05T10:12:31.381Z,27.11
2023-05-05T10:14:57.956Z,27.78
2023-05-05T10:17:24.459Z,28.32
2023-05-05T10:19:51.863Z,28.96
2023-05-05T10:22:18.359Z,29.51
2023-05-05T10:24:47.492Z,30.10
2023-05-05T10:27:20.502Z,30.71
2023-05-05T10:29:49.937Z,31.35
2023-05-05T10:32:53.504Z,32.19
2023-05-05T10:35:22.108Z,33.17
2023-05-05T10:37:49.135Z,34.26
2023-05-05T10:40:15.903Z,34.79
2023-05-05T10:42:42.522Z,35.62
2023-05-05T10:45:09.472Z,35.77
2023-05-05T10:47:36.707Z,35.93
2023-05-05T10:50:14.812Z,35.74
2023-05-05T10:53:08.817Z,35.74
2023-05-05T10:55:41.972Z,35.82
2023-05-05T10:58:08.432Z,36.21
2023-05-05T11:00:37.868Z,36.96
2023-05-05T11:03:16.726Z,37.90
2023-05-05T11:06:15.816Z,37.73
2023-05-05T11:08:43.581Z,37.15
2023-05-05T11:11:10.856Z,37.33
2023-05-05T11:13:38.580Z,37.59
2023-05-05T11:16:05.385Z,37.62
2023-05-05T11:18:39.348Z,37.59
2023-05-05T11:21:18.157Z,38.14
2023-05-05T11:23:49.096Z,38.67
2023-05-05T11:26:16.191Z,38.69
2023-05-05T11:29:00.119Z,37.44
2023-05-05T11:31:26.815Z,37.75
2023-05-05T11:33:53.509Z,38.02
2023-05-05T11:36:20.464Z,38.24
2023-05-05T11:39:08.824Z,38.20
2023-05-05T11:41:56.510Z,38.54
2023-05-05T11:44:30.736Z,39.49
2023-05-05T11:46:57.104Z,40.29
2023-05-05T11:49:29.390Z,40.59
2023-05-05T11:52:05.926Z,39.19
2023-05-05T11:54:32.564Z,39.58
2023-05-05T11:57:07.732Z,40.97
2023-05-05T11:59:36.285Z,42.24
2023-05-05T12:02:03.618Z,43.24
2023-05-05T12:04:31.056Z,44.69
2023-05-05T12:06:57.864Z,44.95
2023-05-05T12:09:24.364Z,45.43
2023-05-05T12:11:58.044Z,45.96
2023-05-05T12:14:25.012Z,46.80
2023-05-05T12:16:58.045Z,47.70
2023-05-05T12:19:24.561Z,48.34
2023-05-05T12:21:51.264Z,48.74
2023-05-05T12:24:17.734Z,49.35
2023-05-05T12:26:44.230Z,49.70
2023-05-05T12:29:10.865Z,49.86
2023-05-05T12:31:38.121Z,49.57
2023-05-05T12:34:05.138Z,49.76
2023-05-05T12:36:33.584Z,49.63
2023-05-05T12:39:00.160Z,49.74
2023-05-05T12:41:26.861Z,50.35
2023-05-05T12:43:59.596Z,50.71
2023-05-05T12:46:26.437Z,50.41
2023-05-05T12:49:06.740Z,50.54
2023-05-05T12:51:34.023Z,50.95
2023-05-05T12:54:10.199Z,51.12
2023-05-05T12:56:40.477Z,50.56
2023-05-05T12:59:08.059Z,50.97
2023-05-05T13:01:50.197Z,52.14
2023-05-05T13:04:16.908Z,52.52
2023-05-05T13:06:44.990Z,52.59
2023-05-05T13:09:28.198Z,52.35
2023-05-05T13:11:54.775Z,52.49
2023-05-05T13:14:21.559Z,52.88
2023-05-05T13:16:48.091Z,53.07
2023-05-05T13:19:14.619Z,52.43
2023-05-05T13:21:41.721Z,52.56
2023-05-05T13:24:23.715Z,52.77
2023-05-05T13:26:55.759Z,52.72
2023-05-05T13:29:24.258Z,51.93
2023-05-05T13:31:52.701Z,48.78
2023-05-05T13:34:19.246Z,44.67
2023-05-05T13:36:45.848Z,41.60
2023-05-05T13:39:12.589Z,41.65
2023-05-05T13:41:39.165Z,45.06
2023-05-05T13:44:05.661Z,47.62
2023-05-05T13:46:32.620Z,47.25
2023-05-05T13:48:59.143Z,45.83
2023-05-05T13:51:25.683Z,43.71
2023-05-05T13:53:52.390Z,41.62
2023-05-05T13:56:19.118Z,38.66
2023-05-05T13:58:46.310Z,36.36
2023-05-05T14:01:12.879Z,34.64
2023-05-05T14:03:39.662Z,33.10
2023-05-05T14:06:07.454Z,32.76
2023-05-05T14:08:34.055Z,32.02
2023-05-05T14:11:00.570Z,34.69
2023-05-05T14:13:27.016Z,39.59
2023-05-05T14:15:53.792Z,42.33
2023-05-05T14:18:20.763Z,44.78
2023-05-05T14:20:47.269Z,46.76
2023-05-05T14:23:13.730Z,47.42
2023-05-05T14:25:40.222Z,46.09
2023-05-05T14:28:07.097Z,43.47
2023-05-05T14:30:33.588Z,44.39
2023-05-05T14:33:01.193Z,45.66
2023-05-05T14:35:27.819Z,47.19
2023-05-05T14:37:54.278Z,48.40
2023-05-05T14:40:20.776Z,48.82
2023-05-05T14:42:47.229Z,49.09
2023-05-05T14:45:13.682Z,48.59
2023-05-05T14:47:40.363Z,48.05
2023-05-05T14:50:09.620Z,47.20
2023-05-05T14:52:40.276Z,46.48
2023-05-05T14:55:07.427Z,44.79
2023-05-05T14:57:34.450Z,43.39
2023-05-05T15:00:00.923Z,42.30
2023-05-05T15:02:27.500Z,42.07
2023-05-05T15:04:54.044Z,41.49
2023-05-05T15:07:22.031Z,41.44
2023-05-05T15:09:48.501Z,40.60
2023-05-05T15:12:14.993Z,40.18
2023-05-05T15:14:42.160Z,38.75
2023-05-05T15:17:08.685Z,38.37
2023-05-05T15:19:35.198Z,39.63
2023-05-05T15:22:01.705Z,40.91
2023-05-05T15:24:28.247Z,40.81
2023-05-05T15:26:54.769Z,40.76
2023-05-05T15:29:21.470Z,41.27
2023-05-05T15:31:47.987Z,41.06
2023-05-05T15:34:14.497Z,41.06
2023-05-05T15:36:40.968Z,40.76
2023-05-05T15:39:07.449Z,39.89
2023-05-05T15:41:34.061Z,38.52
2023-05-05T15:44:02.012Z,37.96
2023-05-05T15:46:31.326Z,37.53
2023-05-05T15:48:57.877Z,37.28
2023-05-05T15:51:24.390Z,36.71
2023-05-05T15:53:52.320Z,36.14
2023-05-05T15:56:19.177Z,36.03
2023-05-05T15:58:45.712Z,35.98
2023-05-05T16:01:12.363Z,35.75
2023-05-05T16:03:38.854Z,34.81
2023-05-05T16:06:05.594Z,33.79
2023-05-05T16:08:32.176Z,33.53
2023-05-05T16:10:58.638Z,33.76
2023-05-05T16:13:25.234Z,33.74
2023-05-05T16:15:51.713Z,33.39
2023-05-05T16:18:18.177Z,33.31
2023-05-05T16:20:44.690Z,33.17
2023-05-05T16:23:11.220Z,32.77
2023-05-05T16:25:37.712Z,32.25
2023-05-05T16:28:04.425Z,32.23
2023-05-05T16:30:30.902Z,31.62
2023-05-05T16:32:57.408Z,31.25
2023-05-05T16:35:23.972Z,31.13
2023-05-05T16:37:50.469Z,29.78
2023-05-05T16:40:16.968Z,28.03
2023-05-05T16:42:44.632Z,26.50
2023-05-05T16:45:11.517Z,25.30
2023-05-05T16:47:38.325Z,24.37
2023-05-05T16:50:05.395Z,23.53
2023-05-05T16:52:31.865Z,22.93
2023-05-05T16:54:58.314Z,22.38
2023-05-05T16:57:24.842Z,21.70
2023-05-05T16:59:55.512Z,21.19
2023-05-05T17:02:22.187Z,20.89
2023-05-05T17:04:49.093Z,20.51
2023-05-05T17:07:15.604Z,20.31
2023-05-05T17:09:42.080Z,20.09
2023-05-05T17:12:08.603Z,20.03
2023-05-05T17:14:35.453Z,20.05
2023-05-05T17:17:01.988Z,20.07
2023-05-05T17:19:28.511Z,20.07
2023-05-05T17:21:55.181Z,20.11
2023-05-05T17:24:21.909Z,19.99
2023-05-05T17:26:48.797Z,19.85
2023-05-05T17:29:19.565Z,19.79
2023-05-05T17:31:46.564Z,19.63
2023-05-05T17:34:13.071Z,19.32
2023-05-05T17:36:39.603Z,19.12
2023-05-05T17:39:06.122Z,18.95
2023-05-05T17:41:32.608Z,18.82
2023-05-05T17:43:59.444Z,18.74
2023-05-05T17:46:26.156Z,18.71
2023-05-05T17:48:52.984Z,18.53
2023-05-05T17:51:19.544Z,18.44
2023-05-05T17:53:46.023Z,18.26
2023-05-05T17:56:12.488Z,17.97
2023-05-05T17:58:39.132Z,17.83
2023-05-05T18:01:06.344Z,17.73
2023-05-05T18:03:33.100Z,17.62
2023-05-05T18:05:59.824Z,17.40
2023-05-05T18:08:26.882Z,17.19
2023-05-05T18:10:54.201Z,17.08
2023-05-05T18:13:21.445Z,16.92
2023-05-05T18:15:48.013Z,16.76
2023-05-05T18:18:14.642Z,16.62
2023-05-05T18:20:41.169Z,16.50
2023-05-05T18:23:07.649Z,16.38
2023-05-05T18:25:34.147Z,16.26
2023-05-05T18:28:00.688Z,16.13
2023-05-05T18:30:27.267Z,15.98
2023-05-05T18:32:53.821Z,15.88
2023-05-05T18:35:21.329Z,15.73
2023-05-05T18:37:47.896Z,15.67
2023-05-05T18:40:14.528Z,15.54
2023-05-05T18:42:41.552Z,15.47
2023-05-05T18:45:08.962Z,15.44
2023-05-05T18:47:39.561Z,15.41
2023-05-05T18:50:06.556Z,15.35
2023-05-05T18:52:33.262Z,15.28
2023-05-05T18:54:59.727Z,15.17
2023-05-05T18:57:27.250Z,15.07
2023-05-05T18:59:53.763Z,15.07
2023-05-05T19:02:20.249Z,15.05
2023-05-05T19:04:46.810Z,14.94
2023-05-05T19:07:23.905Z,14.87
2023-05-05T19:09:58.046Z,14.84
2023-05-05T19:12:24.591Z,14.80
2023-05-05T19:14:51.103Z,14.77
2023-05-05T19:17:17.581Z,14.79
2023-05-05T19:19:44.060Z,14.77
2023-05-05T19:22:10.528Z,14.70
2023-05-05T19:24:36.982Z,14.70
2023-05-05T19:27:03.863Z,14.69
2023-05-05T19:29:33.081Z,14.73
2023-05-05T19:31:59.589Z,14.68
2023-05-05T19:34:26.601Z,14.69
2023-05-05T19:36:53.063Z,14.68
2023-05-05T19:39:19.760Z,14.65
2023-05-05T19:41:46.491Z,14.57
2023-05-05T19:44:12.977Z,14.50
2023-05-05T19:46:39.510Z,14.53
2023-05-05T19:49:06.572Z,14.55
2023-05-05T19:51:33.079Z,14.58
2023-05-05T19:53:59.583Z,14.61
2023-05-05T19:56:26.258Z,14.61
2023-05-05T19:58:59.401Z,14.65
2023-05-05T20:01:26.788Z,14.69
2023-05-05T20:03:54.580Z,14.70
2023-05-05T20:06:21.493Z,14.73
2023-05-05T20:08:47.979Z,14.74
2023-05-05T20:11:15.359Z,14.73
2023-05-05T20:13:42.161Z,14.64
2023-05-05T20:16:08.944Z,14.58
2023-05-05T20:18:35.557Z,14.52
2023-05-05T20:21:02.102Z,14.46
2023-05-05T20:23:28.646Z,14.42
2023-05-05T20:25:55.875Z,14.32
2023-05-05T20:28:22.434Z,14.24
2023-05-05T20:30:49.002Z,14.15
2023-05-05T20:33:15.706Z,14.03
2023-05-05T20:35:42.222Z,13.97
2023-05-05T20:38:09.739Z,13.92
2023-05-05T20:40:36.338Z,13.83
2023-05-05T20:43:03.061Z,13.76
2023-05-05T20:45:31.909Z,13.72
2023-05-05T20:47:59.846Z,13.69
2023-05-05T20:50:26.607Z,13.66
2023-05-05T20:52:53.161Z,13.58
2023-05-05T20:55:19.676Z,13.54
2023-05-05T20:57:46.219Z,13.45
2023-05-05T21:00:14.366Z,13.37
2023-05-05T21:02:41.841Z,13.33
2023-05-05T21:05:08.778Z,13.24
2023-05-05T21:07:35.319Z,13.19
2023-05-05T21:10:02.474Z,13.11
2023-05-05T21:12:29.086Z,13.04
2023-05-05T21:14:59.518Z,13.04
2023-05-05T21:17:26.734Z,13.07
2023-05-05T21:19:54.029Z,13.15
2023-05-05T21:22:20.898Z,13.22
2023-05-05T21:24:47.376Z,13.26
2023-05-05T21:27:13.971Z,13.28
2023-05-05T21:29:40.808Z,13.24
2023-05-05T21:32:08.405Z,13.13
2023-05-05T21:34:34.940Z,13.02
2023-05-05T21:37:01.435Z,12.83
2023-05-05T21:39:28.357Z,12.70
2023-05-05T21:41:54.829Z,12.65
2023-05-05T21:44:21.308Z,12.62
2023-05-05T21:46:47.983Z,12.60
2023-05-05T21:49:17.669Z,12.54
2023-05-05T21:51:44.544Z,12.47
2023-05-05T21:54:10.999Z,12.44
2023-05-05T21:56:37.558Z,12.43
2023-05-05T21:59:04.814Z,12.40
2023-05-05T22:01:31.539Z,12.41
2023-05-05T22:03:58.285Z,12.38
2023-05-05T22:06:24.881Z,12.31
2023-05-05T22:08:51.585Z,12.24
2023-05-05T22:11:18.536Z,12.23
2023-05-05T22:13:46.203Z,12.33
2023-05-05T22:16:14.288Z,12.39
2023-05-05T22:18:40.792Z,12.48
2023-05-05T22:21:07.287Z,12.56
2023-05-05T22:23:33.825Z,12.58
2023-05-05T22:26:00.372Z,12.63
2023-05-05T22:28:27.704Z,12.68
2023-05-05T22:30:54.164Z,12.74
2023-05-05T22:33:20.721Z,12.78
2023-05-05T22:35:47.367Z,12.83
2023-05-05T22:38:13.853Z,12.85
2023-05-05T22:40:40.406Z,12.89
2023-05-05T22:43:06.917Z,12.86
2023-05-05T22:45:33.368Z,12.83
2023-05-05T22:47:59.949Z,12.76
2023-05-05T22:50:26.654Z,12.71
2023-05-05T22:52:53.163Z,12.65
2023-05-05T22:55:20.280Z,12.67
2023-05-05T22:57:47.348Z,12.77
2023-05-05T23:00:14.523Z,12.80
2023-05-05T23:02:41.544Z,12.86
2023-05-05T23:05:08.600Z,12.90
2023-05-05T23:07:35.263Z,12.90
2023-05-05T23:10:01.801Z,12.89
2023-05-05T23:12:28.354Z,12.90
2023-05-05T23:14:54.874Z,12.91
2023-05-05T23:17:21.360Z,12.95
2023-05-05T23:19:48.092Z,13.01
2023-05-05T23:22:14.667Z,13.02
2023-05-05T23:27:07.617Z,13.00
2023-05-05T23:29:34.132Z,13.00
2023-05-05T23:32:00.648Z,12.95
2023-05-05T23:34:27.162Z,12.89
2023-05-05T23:36:53.621Z,12.70
2023-05-05T23:39:20.081Z,12.55
2023-05-05T23:41:46.604Z,12.49
2023-05-05T23:44:13.147Z,12.41
2023-05-05T23:46:39.730Z,12.35
2023-05-05T23:49:06.251Z,12.37
2023-05-05T23:51:32.739Z,12.36
2023-05-05T23:53:59.395Z,12.37
2023-05-05T23:56:26.295Z,12.38
2023-05-05T23:58:53.008Z,12.37
